Time;durP1;ratioP1;P1;durP2;ratioP2;P2;SDS_P1;SDS_P2;PMS_P1;PMS_P2;Temp;Humidity;BMP_temperature;BMP_pressure;BME280_temperature;BME280_humidity;BME280_pressure;Samples;Min_cycle;Max_cycle;Signal;HPM_P1;HPM_P2
2022/05/16 00:01:22;;;;;;;8.13;2.80;;;;;;;13.59;72.23;100655.91;6155144;23;20028;-73
2022/05/16 00:04:26;;;;;;;6.60;3.00;;;;;;;13.62;71.68;100653.06;6154927;23;20067;-73
2022/05/16 00:07:29;;;;;;;5.78;2.75;;;;;;;13.61;71.64;100647.94;6154816;23;20024;-73
2022/05/16 00:10:33;;;;;;;5.97;2.80;;;;;;;13.55;72.04;100643.91;6154972;23;20467;-73
2022/05/16 00:13:37;;;;;;;6.07;3.08;;;;;;;13.46;72.09;100639.22;6154773;23;20024;-73
2022/05/16 00:16:41;;;;;;;5.32;2.53;;;;;;;13.52;71.81;100633.56;6155106;23;20345;-73
2022/05/16 00:19:44;;;;;;;4.65;2.80;;;;;;;13.43;71.87;100631.53;6154739;23;20028;-73
2022/05/16 00:22:47;;;;;;;5.43;2.70;;;;;;;13.35;72.31;100633.78;6154904;23;20076;-73
2022/05/16 00:25:51;;;;;;;6.60;3.03;;;;;;;13.31;72.27;100627.06;6155005;23;20471;-73
2022/05/16 00:28:55;;;;;;;10.60;3.85;;;;;;;13.37;71.90;100634.53;6155090;23;20464;-73
2022/05/16 00:31:59;;;;;;;8.07;2.15;;;;;;;13.37;71.66;100630.16;6154829;23;20086;-72
2022/05/16 00:35:05;;;;;;;9.23;3.20;;;;;;;13.31;71.71;100627.06;6154660;23;20076;-72
2022/05/16 00:38:08;;;;;;;7.38;2.50;;;;;;;13.20;72.13;100623.25;6154560;23;20052;-73
2022/05/16 00:41:12;;;;;;;4.97;2.20;;;;;;;13.19;72.17;100618.94;6154783;23;20028;-73
2022/05/16 00:44:16;;;;;;;5.97;2.95;;;;;;;13.21;72.29;100611.84;6154571;23;20022;-73
2022/05/16 00:47:19;;;;;;;4.60;2.22;;;;;;;13.20;72.08;100617.16;6154562;23;20084;-73
2022/05/16 00:50:23;;;;;;;4.63;2.42;;;;;;;13.07;72.39;100614.44;6154365;23;20056;-73
2022/05/16 00:53:26;;;;;;;9.27;3.17;;;;;;;13.03;72.55;100619.03;6152344;23;20400;-73
2022/05/16 00:56:32;;;;;;;6.50;2.97;;;;;;;12.92;72.91;100616.25;6154473;23;20113;-73
2022/05/16 00:59:42;;;;;;;6.38;2.90;;;;;;;12.91;72.76;100611.91;6154703;23;20040;-73
2022/05/16 01:06:21;;;;;;;4.78;2.40;;;;;;;12.96;72.71;100609.88;6156935;23;20349;-73
2022/05/16 01:09:24;;;;;;;7.15;2.97;;;;;;;12.98;72.26;100617.63;6156689;23;20127;-73
2022/05/16 01:12:33;;;;;;;5.93;2.40;;;;;;;12.95;72.47;100613.41;6156342;23;20076;-73
2022/05/16 01:15:39;;;;;;;5.50;2.10;;;;;;;12.93;72.66;100619.72;6156406;23;20058;-73
2022/05/16 01:18:42;;;;;;;4.65;2.38;;;;;;;12.89;72.60;100616.44;6156228;23;20032;-73
2022/05/16 01:21:46;;;;;;;5.82;2.50;;;;;;;12.79;72.66;100610.91;6156726;23;20101;-73
2022/05/16 01:24:52;;;;;;;6.22;2.88;;;;;;;12.81;72.69;100616.03;6156477;23;20025;-73
2022/05/16 01:28:01;;;;;;;6.22;2.67;;;;;;;12.75;73.01;100603.28;6156362;23;20036;-73
2022/05/16 01:31:05;;;;;;;9.13;2.88;;;;;;;12.77;72.81;100610.13;6156256;23;20072;-73
2022/05/16 01:34:09;;;;;;;6.38;2.60;;;;;;;12.78;72.83;100610.97;6156303;23;20156;-73
2022/05/16 01:37:13;;;;;;;5.60;2.40;;;;;;;12.75;72.64;100605.91;6155609;23;20032;-72
2022/05/16 01:40:16;;;;;;;4.28;1.95;;;;;;;12.78;72.24;100606.56;6156549;23;20039;-73
2022/05/16 01:43:28;;;;;;;5.82;2.40;;;;;;;12.74;73.01;100605.06;6156148;23;20020;-73
2022/05/16 01:46:39;;;;;;;5.85;2.60;;;;;;;12.77;72.70;100607.50;6156038;23;20087;-73
2022/05/16 01:49:43;;;;;;;7.00;2.97;;;;;;;12.69;72.92;100604.47;6155733;23;20028;-73
2022/05/16 01:52:46;;;;;;;6.70;3.00;;;;;;;12.63;73.43;100599.59;6156253;23;20076;-73
2022/05/16 01:55:50;;;;;;;;;;;;;;;12.56;73.61;100598.28;6156414;23;20358;-73
2022/05/16 01:58:53;;;;;;;5.75;2.97;;;;;;;12.56;73.31;100587.78;6156008;23;19962;-73
2022/05/16 02:01:56;;;;;;;5.95;2.67;;;;;;;12.53;73.70;100583.56;6156230;23;20080;-73
2022/05/16 02:05:00;;;;;;;4.32;2.55;;;;;;;12.53;73.74;100583.56;6156068;23;20456;-73
2022/05/16 02:08:04;;;;;;;5.65;2.17;;;;;;;12.53;73.63;100587.97;6156136;23;20088;-72
2022/05/16 02:11:07;;;;;;;6.45;2.17;;;;;;;12.63;73.07;100583.88;6155867;23;20079;-73
2022/05/16 02:14:11;;;;;;;4.55;2.38;;;;;;;12.59;73.17;100582.38;6155345;23;20029;-73
2022/05/16 02:17:14;;;;;;;8.13;2.78;;;;;;;12.56;73.54;100585.19;6156007;23;20350;-73
2022/05/16 02:20:18;;;;;;;5.32;2.35;;;;;;;12.57;73.41;100573.75;6155771;23;20033;-73
2022/05/16 02:26:47;;;;;;;6.00;2.50;;;;;;;12.45;73.94;100579.75;6155830;23;20055;-73
2022/05/16 02:29:50;;;;;;;5.85;2.58;;;;;;;12.38;74.37;100588.88;6155614;23;20040;-73
2022/05/16 02:32:55;;;;;;;8.27;2.65;;;;;;;12.49;74.16;100591.72;6155804;23;20460;-73
2022/05/16 02:35:59;;;;;;;4.13;2.35;;;;;;;12.30;74.07;100582.31;6155811;23;20040;-72
2022/05/16 02:39:04;;;;;;;5.05;2.45;;;;;;;12.41;73.98;100593.94;6155494;23;20095;-73
2022/05/16 02:42:08;;;;;;;6.38;2.63;;;;;;;12.42;74.41;100585.16;6155740;23;20028;-73
2022/05/16 02:45:12;;;;;;;3.83;2.22;;;;;;;12.53;73.94;100582.72;6155756;23;20037;-73
2022/05/16 02:48:15;;;;;;;4.75;2.22;;;;;;;12.64;72.96;100582.09;6155401;23;20064;-73
2022/05/16 02:51:19;;;;;;;4.65;2.55;;;;;;;12.56;73.01;100582.56;6153463;23;20024;-73
2022/05/16 02:54:24;;;;;;;4.90;2.63;;;;;;;12.50;73.59;100582.91;6155296;23;20096;-73
2022/05/16 02:57:29;;;;;;;5.72;2.63;;;;;;;12.47;73.85;100589.19;6155347;23;20024;-73
2022/05/16 03:00:32;;;;;;;6.85;2.38;;;;;;;12.34;74.23;100585.59;6155319;23;20032;-73
2022/05/16 03:03:37;;;;;;;4.65;2.60;;;;;;;12.39;74.26;100587.97;6155317;23;20028;-72
2022/05/16 03:06:42;;;;;;;5.75;2.90;;;;;;;12.47;73.69;100578.69;6155420;23;20024;-73
2022/05/16 03:09:47;;;;;;;6.15;2.15;;;;;;;12.39;74.11;100567.00;6155478;23;20040;-73
2022/05/16 03:12:51;;;;;;;10.40;2.63;;;;;;;12.47;73.78;100581.31;6155172;23;20028;-72
2022/05/16 03:15:55;;;;;;;5.35;2.60;;;;;;;12.42;73.94;100580.75;6155325;23;20461;-73
2022/05/16 03:18:59;;;;;;;9.43;2.65;;;;;;;12.38;74.41;100578.38;6155107;23;20517;-73
2022/05/16 03:22:06;;;;;;;8.60;3.20;;;;;;;12.27;74.58;100572.00;6155085;23;20025;-72
2022/05/16 03:25:10;;;;;;;7.40;2.65;;;;;;;12.22;74.73;100574.06;6155427;23;20020;-73
2022/05/16 03:28:13;;;;;;;6.82;2.55;;;;;;;12.39;73.74;100577.47;6155362;23;20040;-73
2022/05/16 03:31:17;;;;;;;4.93;2.97;;;;;;;12.32;74.25;100569.97;6155411;23;20079;-72
2022/05/16 03:34:21;;;;;;;4.43;2.25;;;;;;;12.41;73.81;100578.22;6155225;23;20121;-73
2022/05/16 03:37:25;;;;;;;6.10;2.83;;;;;;;12.34;73.82;100564.63;6154805;23;20349;-73
2022/05/16 03:40:45;;;;;;;7.57;2.80;;;;;;;12.27;74.42;100572.00;6155190;23;20370;-73
2022/05/16 03:43:50;;;;;;;4.28;2.40;;;;;;;12.31;74.35;100557.78;6155217;23;20472;-73
2022/05/16 03:46:54;;;;;;;6.32;2.72;;;;;;;12.40;74.14;100547.69;6155225;23;20024;-73
2022/05/16 03:49:58;;;;;;;6.47;2.85;;;;;;;12.27;74.38;100535.28;6155160;23;20055;-73
2022/05/16 03:53:02;;;;;;;6.13;2.20;;;;;;;12.28;74.56;100536.13;6155305;23;20080;-72
2022/05/16 03:56:05;;;;;;;6.57;2.30;;;;;;;12.47;73.63;100543.75;6154977;23;20071;-72
2022/05/16 03:59:11;;;;;;;5.93;2.33;;;;;;;12.47;73.48;100538.50;6154572;23;20393;-72
2022/05/16 04:02:15;;;;;;;7.68;3.78;;;;;;;12.36;73.87;100548.81;6149482;23;20647;-72
2022/05/16 04:05:23;;;;;;;6.50;2.92;;;;;;;12.37;74.12;100550.50;6148275;23;20025;-72
2022/05/16 04:08:28;;;;;;;6.55;2.30;;;;;;;12.36;75.63;100556.69;6149957;23;20509;-73
2022/05/16 04:11:34;;;;;;;6.55;3.30;;;;;;;12.34;74.64;100552.34;6148761;23;20108;-72
2022/05/16 04:14:37;;;;;;;5.60;2.72;;;;;;;12.31;74.74;100552.53;6150430;23;20349;-72
2022/05/16 04:17:41;;;;;;;4.03;2.35;;;;;;;12.40;74.42;100573.91;6149985;23;20025;-72
2022/05/16 04:20:46;;;;;;;4.28;2.40;;;;;;;11.80;76.93;100556.34;6148966;23;20071;-72
2022/05/16 04:23:49;;;;;;;6.35;2.75;;;;;;;12.07;76.27;100538.25;6149302;23;20484;-72
2022/05/16 04:26:53;;;;;;;5.53;2.55;;;;;;;12.34;75.63;100556.75;6147801;23;20424;-72
2022/05/16 04:29:56;;;;;;;6.05;2.80;;;;;;;12.26;75.91;100548.50;6148687;23;20520;-72
2022/05/16 04:33:00;;;;;;;5.57;2.35;;;;;;;12.54;74.78;100560.84;6149076;23;20025;-72
2022/05/16 04:36:04;;;;;;;5.78;2.83;;;;;;;12.66;74.28;100561.84;6148819;23;20029;-72
2022/05/16 04:39:08;;;;;;;9.38;2.65;;;;;;;12.69;74.29;100562.50;6149943;23;20032;-72
2022/05/16 04:45:33;;;;;;;7.85;2.50;;;;;;;12.92;73.35;100541.91;6149788;23;20342;-73
2022/05/16 04:48:37;;;;;;;5.00;2.38;;;;;;;12.75;74.96;100556.91;6149210;23;20028;-72
2022/05/16 04:51:41;;;;;;;5.50;2.97;;;;;;;12.56;75.38;100556.31;6150614;23;20028;-72
2022/05/16 04:54:47;;;;;;;5.93;2.38;;;;;;;12.71;75.26;100560.66;6150614;23;20060;-72
2022/05/16 04:57:52;;;;;;;7.50;2.70;;;;;;;12.80;75.61;100565.34;6147185;23;20171;-72
2022/05/16 05:00:56;;;;;;;8.10;2.85;;;;;;;12.93;74.26;100562.81;6149553;23;20397;-72
2022/05/16 05:04:00;;;;;;;8.45;3.45;;;;;;;13.05;73.84;100566.47;6148568;23;20036;-72
2022/05/16 05:07:07;;;;;;;7.97;4.00;;;;;;;13.19;73.15;100560.34;6148583;23;20141;-72
2022/05/16 05:17:09;;;;;;;11.65;7.00;;;;;;;13.29;73.50;100555.41;6147565;23;20048;-73
2022/05/16 05:20:14;;;;;;;7.28;2.72;;;;;;;13.30;73.77;100557.06;6148417;23;20037;-72
2022/05/16 05:23:18;;;;;;;12.38;3.42;;;;;;;13.40;73.74;100559.03;6148897;23;20049;-72
2022/05/16 05:26:22;;;;;;;10.95;3.10;;;;;;;13.38;73.63;100565.31;6150878;23;20039;-72
2022/05/16 05:29:26;;;;;;;9.55;3.15;;;;;;;13.37;73.76;100572.38;6150609;23;20047;-72
2022/05/16 05:32:29;;;;;;;11.95;2.90;;;;;;;13.36;73.79;100565.41;6148791;23;20064;-72
2022/05/16 05:35:33;;;;;;;8.02;3.05;;;;;;;13.10;74.86;100587.16;6147725;23;20321;-72
2022/05/16 05:38:37;;;;;;;10.93;2.97;;;;;;;13.40;73.98;100584.44;6148427;23;20044;-72
2022/05/16 05:41:41;;;;;;;9.45;2.75;;;;;;;13.59;73.30;100587.59;6142187;23;20032;-73
2022/05/16 05:44:45;;;;;;;10.02;3.63;;;;;;;13.57;73.96;100588.66;6148008;23;20020;-72
2022/05/16 05:47:48;;;;;;;7.22;3.10;;;;;;;13.67;73.56;100593.19;6147079;23;20111;-72
2022/05/16 05:50:51;;;;;;;9.70;3.00;;;;;;;13.72;73.24;100588.50;6150442;23;20028;-73
2022/05/16 05:53:55;;;;;;;19.15;3.58;;;;;;;13.84;72.89;100593.91;6149699;23;20380;-73
2022/05/16 05:56:58;;;;;;;7.47;3.20;;;;;;;13.94;73.27;100592.34;6148911;23;20064;-72
2022/05/16 06:00:05;;;;;;;20.30;3.67;;;;;;;14.00;73.20;100591.94;6146998;23;20028;-73
2022/05/16 06:03:09;;;;;;;10.32;3.45;;;;;;;14.03;73.21;100589.13;6130508;23;20524;-73
2022/05/16 06:06:12;;;;;;;18.45;3.50;;;;;;;14.05;73.50;100599.56;6149396;23;20029;-73
2022/05/16 06:09:16;;;;;;;14.98;3.03;;;;;;;14.10;73.15;100606.22;6149043;23;20029;-73
2022/05/16 06:12:19;;;;;;;11.07;2.67;;;;;;;14.17;72.91;100618.00;6147745;23;20123;-73
2022/05/16 06:15:23;;;;;;;11.38;3.17;;;;;;;14.18;72.71;100598.63;6148066;23;20350;-73
2022/05/16 06:18:26;;;;;;;8.48;2.70;;;;;;;14.24;72.94;100612.34;6149768;23;20027;-73
2022/05/16 06:21:29;;;;;;;17.42;3.55;;;;;;;14.29;73.04;100611.06;6150132;23;20024;-73
2022/05/16 06:27:55;;;;;;;11.23;3.55;;;;;;;14.46;72.38;100599.44;6149593;23;20472;-73
2022/05/16 06:30:58;;;;;;;11.18;3.25;;;;;;;14.57;71.91;100609.25;6148673;23;20471;-73
2022/05/16 06:34:02;;;;;;;14.93;3.30;;;;;;;14.63;72.07;100598.31;6150819;23;20027;-73
2022/05/16 06:37:05;;;;;;;17.48;3.25;;;;;;;14.62;72.60;100596.66;6150210;23;20028;-73
2022/05/16 06:40:11;;;;;;;15.35;3.60;;;;;;;14.65;73.09;100605.16;6150331;23;20029;-73
2022/05/16 06:43:16;;;;;;;12.38;4.03;;;;;;;14.65;72.85;100620.97;6149227;23;20253;-73
2022/05/16 06:46:20;;;;;;;16.33;3.63;;;;;;;14.83;71.90;100618.84;6147386;23;20104;-73
2022/05/16 06:49:23;;;;;;;16.77;2.97;;;;;;;14.88;71.95;100621.19;6146896;23;20097;-73
2022/05/16 06:52:27;;;;;;;16.15;3.78;;;;;;;14.98;71.88;100624.03;6130073;23;20472;-73
2022/05/16 06:55:31;;;;;;;17.50;4.28;;;;;;;15.17;71.57;100632.31;6149741;23;20075;-73
2022/05/16 06:58:35;;;;;;;12.25;3.03;;;;;;;15.31;71.04;100631.34;6132771;23;20056;-73
2022/05/16 07:01:38;;;;;;;11.25;2.72;;;;;;;15.45;71.33;100625.97;6149606;23;20448;-73
2022/05/16 07:04:42;;;;;;;11.95;3.17;;;;;;;15.46;71.23;100627.63;6149481;23;20474;-73
2022/05/16 07:07:45;;;;;;;12.57;3.22;;;;;;;15.55;70.93;100634.06;6151144;23;20024;-73
2022/05/16 07:10:50;;;;;;;13.27;4.05;;;;;;;15.58;70.82;100629.41;6150844;23;20473;-73
2022/05/16 07:13:53;;;;;;;12.13;2.90;;;;;;;15.75;69.98;100636.13;6150517;23;20093;-73
2022/05/16 07:16:57;;;;;;;10.48;3.00;;;;;;;16.03;68.95;100624.41;6150774;23;20029;-73
2022/05/16 07:20:00;;;;;;;11.15;3.20;;;;;;;16.17;67.24;100627.81;6150644;23;20031;-73
2022/05/16 07:23:05;;;;;;;13.60;3.45;;;;;;;16.39;66.64;100625.28;6149256;23;20084;-73
2022/05/16 07:29:31;;;;;;;11.70;3.22;;;;;;;16.50;63.90;100637.69;6149892;23;20024;-73
2022/05/16 07:32:41;;;;;;;12.07;3.15;;;;;;;16.49;63.16;100626.25;6149790;23;20046;-73
2022/05/16 07:35:50;;;;;;;12.48;3.40;;;;;;;16.62;64.69;100635.88;6150037;23;20378;-72
2022/05/16 07:38:54;;;;;;;8.45;2.90;;;;;;;16.57;64.15;100638.06;6149355;23;20044;-73
2022/05/16 07:41:59;;;;;;;12.50;3.47;;;;;;;16.60;64.53;100629.91;6149343;23;20027;-73
2022/05/16 07:45:04;;;;;;;10.57;3.53;;;;;;;16.60;64.70;100643.94;6149100;23;20033;-73
2022/05/16 07:48:08;;;;;;;11.68;3.20;;;;;;;16.66;64.68;100642.63;6147894;23;20096;-73
2022/05/16 07:51:11;;;;;;;14.32;3.55;;;;;;;16.63;64.05;100649.00;6148312;23;20031;-73
2022/05/16 07:54:15;;;;;;;11.32;3.35;;;;;;;16.67;64.38;100649.59;6149285;23;20079;-73
2022/05/16 07:57:19;;;;;;;11.10;3.25;;;;;;;16.85;65.16;100629.75;6149929;23;20072;-72
2022/05/16 08:00:24;;;;;;;10.30;3.10;;;;;;;17.02;64.38;100646.09;6150034;23;20028;-73
2022/05/16 08:03:29;;;;;;;11.55;3.17;;;;;;;17.16;64.04;100641.41;6148076;23;20457;-73
2022/05/16 08:06:34;;;;;;;12.43;3.65;;;;;;;17.22;63.27;100644.53;6149217;23;20498;-74
2022/05/16 08:13:02;;;;;;;10.68;3.38;;;;;;;17.35;62.72;100634.66;6149582;23;20108;-73
2022/05/16 08:16:06;;;;;;;11.05;3.20;;;;;;;17.34;62.05;100630.34;6148150;23;20023;-73
2022/05/16 08:19:09;;;;;;;18.13;3.50;;;;;;;17.41;61.67;100629.75;6148405;23;20076;-73
2022/05/16 08:22:13;;;;;;;8.85;2.72;;;;;;;17.60;62.31;100620.34;6149928;23;20024;-73
2022/05/16 08:25:17;;;;;;;10.95;2.70;;;;;;;17.77;61.59;100629.59;6149447;23;20117;-73
2022/05/16 08:28:22;;;;;;;15.27;3.25;;;;;;;17.82;61.79;100617.69;6148229;23;20366;-72
2022/05/16 08:31:28;;;;;;;12.25;3.35;;;;;;;17.98;60.96;100613.78;6149740;23;20465;-73
2022/05/16 08:34:31;;;;;;;14.43;2.72;;;;;;;18.22;60.63;100609.13;6149440;23;20056;-73
2022/05/16 08:41:02;;;;;;;19.58;3.55;;;;;;;18.42;59.07;100603.97;6148825;23;20129;-73
2022/05/16 08:44:14;;;;;;;8.50;3.13;;;;;;;18.38;59.49;100607.84;6149061;23;20029;-73
2022/05/16 08:47:38;;;;;;;13.57;3.30;;;;;;;18.68;59.90;100602.59;6148481;23;20024;-73
2022/05/16 08:50:52;;;;;;;13.55;3.22;;;;;;;18.90;59.20;100603.47;6149168;23;20032;-73
2022/05/16 08:54:02;;;;;;;11.32;3.17;;;;;;;19.01;59.50;100600.72;6149905;23;20079;-73
2022/05/16 08:57:08;;;;;;;15.52;3.15;;;;;;;19.13;59.32;100598.81;6149137;23;20393;-73
2022/05/16 09:00:21;;;;;;;10.20;2.72;;;;;;;19.17;60.39;100597.56;6149831;23;20024;-73
2022/05/16 09:03:33;;;;;;;6.47;2.30;;;;;;;19.50;60.00;100585.81;6149073;23;20088;-73
2022/05/16 09:06:57;;;;;;;6.05;2.45;;;;;;;19.66;59.20;100585.31;6149078;23;20487;-73
2022/05/16 09:10:08;;;;;;;11.82;2.85;;;;;;;19.76;59.18;100582.69;6148529;23;20055;-73
2022/05/16 09:13:40;;;;;;;6.40;2.42;;;;;;;19.84;57.63;100578.34;6148954;23;20025;-73
2022/05/16 09:16:47;;;;;;;6.10;2.40;;;;;;;20.27;56.58;100579.75;6147281;23;20029;-73
2022/05/16 09:20:02;;;;;;;7.95;2.72;;;;;;;20.52;55.99;100578.34;6148625;23;20027;-73
2022/05/16 09:23:31;;;;;;;8.98;2.67;;;;;;;20.58;56.90;100580.44;6149645;23;20033;-73
2022/05/16 09:26:35;;;;;;;7.75;2.60;;;;;;;21.28;54.23;100577.34;6150546;23;20033;-73
2022/05/16 09:29:45;;;;;;;9.82;2.95;;;;;;;21.18;54.81;100584.53;6150386;23;20025;-73
2022/05/16 09:32:57;;;;;;;8.82;2.28;;;;;;;21.35;54.21;100575.81;6151224;23;20460;-73
2022/05/16 09:36:04;;;;;;;6.65;2.28;;;;;;;21.49;53.81;100569.16;6150712;23;20076;-73
2022/05/16 09:39:10;;;;;;;9.30;2.80;;;;;;;21.67;53.17;100571.84;6151234;23;20241;-73
2022/05/16 09:42:19;;;;;;;17.02;2.28;;;;;;;21.78;53.98;100576.94;6150606;23;20084;-73
2022/05/16 09:45:25;;;;;;;7.00;2.13;;;;;;;21.86;53.32;100565.50;6150920;23;20444;-73
2022/05/16 09:48:28;;;;;;;6.43;2.50;;;;;;;22.24;51.58;100567.06;6151068;23;20385;-73
2022/05/16 09:51:42;;;;;;;4.75;1.77;;;;;;;22.47;50.59;100562.88;6151592;23;20239;-73
2022/05/16 09:54:59;;;;;;;6.78;2.25;;;;;;;22.70;49.94;100562.34;6150890;23;20096;-73
2022/05/16 09:58:13;;;;;;;5.00;2.00;;;;;;;22.80;49.11;100565.75;6150011;23;20401;-73
2022/05/16 10:01:43;;;;;;;7.07;2.35;;;;;;;22.87;49.39;100558.78;6132274;23;20083;-73
2022/05/16 10:04:52;;;;;;;6.80;2.17;;;;;;;22.84;48.72;100556.41;6150354;23;20067;-73
2022/05/16 10:08:05;;;;;;;4.57;1.92;;;;;;;23.02;48.42;100568.88;6150624;23;20024;-73
2022/05/16 10:11:18;;;;;;;7.03;2.20;;;;;;;23.23;47.39;100563.13;6150657;23;20028;-75
2022/05/16 10:14:22;;;;;;;;;;;;;;;23.27;47.05;100573.31;6150694;23;20033;-74
2022/05/16 10:17:32;;;;;;;7.82;2.05;;;;;;;23.13;47.89;100560.59;6153202;23;20344;-74
2022/05/16 10:20:39;;;;;;;4.28;1.70;;;;;;;23.40;48.09;100572.88;6155405;23;20064;-74
2022/05/16 10:23:45;;;;;;;5.32;2.00;;;;;;;23.52;46.85;100565.41;6155633;23;20037;-74
2022/05/16 10:26:51;;;;;;;6.13;2.10;;;;;;;23.60;46.23;100565.41;6156218;23;20032;-74
2022/05/16 10:29:58;;;;;;;6.22;2.40;;;;;;;24.17;44.84;100568.16;6156509;23;20072;-74
2022/05/16 10:36:31;;;;;;;5.75;1.88;;;;;;;24.55;43.08;100561.28;6155460;23;20029;-74
2022/05/16 10:39:38;;;;;;;11.18;1.77;;;;;;;24.69;41.36;100559.75;6157266;23;20032;-74
2022/05/16 10:43:06;;;;;;;6.88;2.40;;;;;;;24.76;42.34;100565.25;6160930;23;20083;-73
2022/05/16 10:46:17;;;;;;;3.42;1.70;;;;;;;24.67;42.46;100560.94;6156177;23;20464;-73
2022/05/16 10:49:21;;;;;;;3.72;1.85;;;;;;;24.54;43.16;100558.81;6155763;23;20025;-73
2022/05/16 10:52:52;;;;;;;7.53;1.30;;;;;;;24.71;43.45;100563.09;6155289;23;20068;-73
2022/05/16 10:56:27;;;;;;;8.18;1.90;;;;;;;24.46;44.26;100561.47;6155415;23;20024;-74
2022/05/16 11:00:25;;;;;;;6.32;1.77;;;;;;;24.60;44.36;100555.41;6155937;23;20029;-73
2022/05/16 11:03:29;;;;;;;4.18;1.77;;;;;;;24.61;44.45;100559.78;6125364;23;20060;-73
2022/05/16 11:07:11;;;;;;;6.80;2.20;;;;;;;24.37;45.35;100569.47;6155374;23;20028;-74
2022/05/16 11:10:33;;;;;;;;;;;;;;;23.80;47.34;100565.97;6155825;23;20471;-73
2022/05/16 11:13:52;;;;;;;4.13;1.60;;;;;;;23.95;46.97;100560.81;6137227;23;19915;-73
2022/05/16 11:17:05;;;;;;;6.15;1.38;;;;;;;23.95;47.07;100556.28;6155226;23;20033;-73
2022/05/16 11:20:26;;;;;;;7.97;2.13;;;;;;;24.01;46.98;100562.81;6154974;23;20092;-73
2022/05/16 11:23:54;;;;;;;8.25;2.17;;;;;;;23.87;46.44;100549.13;6155255;23;20103;-74
2022/05/16 11:27:09;;;;;;;7.28;2.00;;;;;;;23.80;47.53;100545.47;6155196;23;20524;-74
2022/05/16 11:30:21;;;;;;;4.80;1.85;;;;;;;23.85;46.74;100543.09;6154721;23;20059;-74
2022/05/16 11:33:37;;;;;;;;;;;;;;;23.95;46.80;100537.59;6155228;23;20055;-73
2022/05/16 11:36:49;;;;;;;3.58;1.42;;;;;;;23.88;47.56;100533.94;6154806;23;20339;-74
2022/05/16 11:40:25;;;;;;;10.65;2.35;;;;;;;23.69;47.62;100537.75;6154900;23;20040;-74
2022/05/16 11:43:32;;;;;;;7.07;2.15;;;;;;;23.82;47.74;100534.59;6155029;23;20037;-73
2022/05/16 11:47:05;;;;;;;6.45;2.20;;;;;;;23.87;48.03;100530.44;6153333;23;20057;-74
2022/05/16 11:50:33;;;;;;;9.43;2.20;;;;;;;24.03;47.53;100532.28;6153962;23;20032;-74
2022/05/16 11:53:49;;;;;;;4.53;2.00;;;;;;;23.86;48.37;100523.41;6153721;23;20101;-73
2022/05/16 12:00:32;;;;;;;7.43;2.05;;;;;;;23.64;49.04;100529.38;6154058;23;20072;-73
2022/05/16 12:04:01;;;;;;;5.53;2.03;;;;;;;23.65;49.61;100528.38;6153994;23;20205;-74
2022/05/16 12:07:28;;;;;;;6.20;2.42;;;;;;;23.84;49.21;100521.94;6154089;23;20028;-74
2022/05/16 12:10:32;;;;;;;6.93;2.50;;;;;;;24.04;48.75;100530.44;6153868;23;20028;-74
2022/05/16 12:13:56;;;;;;;6.88;2.47;;;;;;;24.37;48.66;100515.19;6154043;23;20401;-74
2022/05/16 12:17:19;;;;;;;10.75;3.28;;;;;;;24.84;47.81;100498.38;6145297;23;20299;-73
2022/05/16 12:20:42;;;;;;;10.18;3.00;;;;;;;25.24;46.83;100496.53;6148177;23;20028;-77
2022/05/16 12:23:54;;;;;;;;;;;;;;;24.97;47.79;100505.84;6149993;23;20028;-77
2022/05/16 12:27:05;;;;;;;14.13;3.10;;;;;;;24.87;47.51;100507.91;6148753;23;20379;-78
2022/05/16 12:30:16;;;;;;;10.25;3.30;;;;;;;25.12;46.83;100512.16;6147946;23;20028;-78
2022/05/16 12:33:23;;;;;;;7.30;2.40;;;;;;;25.29;45.71;100510.22;6146932;23;20024;-79
2022/05/16 12:36:26;;;;;;;10.23;3.00;;;;;;;25.07;46.59;100519.81;6149814;23;20245;-79
2022/05/16 12:39:37;;;;;;;10.40;2.72;;;;;;;24.81;47.31;100531.63;6149649;23;20075;-78
2022/05/16 12:43:02;;;;;;;6.43;2.63;;;;;;;24.99;46.60;100511.84;6149356;23;20040;-79
2022/05/16 12:46:50;;;;;;;7.78;2.72;;;;;;;25.54;45.60;100497.50;6148642;23;20020;-78
2022/05/16 12:50:12;;;;;;;9.05;2.90;;;;;;;25.71;45.55;100499.03;6119781;23;20033;-79
2022/05/16 12:53:47;;;;;;;13.38;3.80;;;;;;;25.25;46.83;100523.13;6148907;23;20048;-78
2022/05/16 12:56:58;;;;;;;11.63;3.10;;;;;;;25.63;46.18;100523.22;6150528;23;20032;-79
2022/05/16 13:00:24;;;;;;;11.65;3.20;;;;;;;26.07;44.47;100516.34;6151513;23;20039;-79
2022/05/16 13:03:48;;;;;;;13.77;3.90;;;;;;;26.38;43.89;100545.72;6154048;23;20124;-78
2022/05/16 13:07:09;;;;;;;11.07;4.40;;;;;;;25.97;43.90;100540.72;6150889;23;20382;-74
2022/05/16 13:10:30;;;;;;;15.77;4.05;;;;;;;25.32;44.68;100528.59;6150589;23;20029;-73
2022/05/16 13:13:57;;;;;;;9.52;2.88;;;;;;;26.03;43.14;100558.75;6150907;23;20032;-73
2022/05/16 13:17:11;;;;;;;13.15;2.90;;;;;;;26.39;41.57;100542.84;6149735;23;20087;-73
2022/05/16 13:20:23;;;;;;;11.35;3.20;;;;;;;26.56;41.56;100561.50;6150853;23;20409;-73
2022/05/16 13:23:27;;;;;;;11.43;3.25;;;;;;;26.71;41.37;100537.34;6151806;23;20052;-73
2022/05/16 13:29:54;;;;;;;15.10;3.15;;;;;;;25.83;43.27;100554.91;6151296;23;20405;-73
2022/05/16 13:32:59;;;;;;;8.60;2.63;;;;;;;25.79;43.81;100570.47;6151372;23;20476;-75
2022/05/16 13:36:20;;;;;;;13.27;3.40;;;;;;;25.42;45.00;100573.88;6151084;23;20020;-76
2022/05/16 13:39:23;;;;;;;7.85;2.92;;;;;;;25.74;44.10;100568.31;6149991;23;20032;-75
2022/05/16 13:42:27;;;;;;;8.65;2.67;;;;;;;25.35;45.52;100583.63;6150697;23;20113;-76
2022/05/16 13:45:31;;;;;;;11.00;2.40;;;;;;;24.58;48.08;100611.75;6149451;23;20024;-76
2022/05/16 13:48:35;;;;;;;9.48;3.58;;;;;;;23.66;50.91;100624.31;6149529;23;20413;-75
2022/05/16 13:51:51;;;;;;;9.27;2.47;;;;;;;23.44;50.78;100631.06;6148427;23;20044;-74
2022/05/16 13:54:58;;;;;;;5.15;2.50;;;;;;;22.98;51.99;100643.88;6148914;23;20354;-77
2022/05/16 13:58:04;;;;;;;7.63;2.30;;;;;;;23.17;52.12;100644.63;6149614;23;20429;-76
2022/05/16 14:01:19;;;;;;;8.10;2.55;;;;;;;25.48;46.33;100664.19;6148362;23;20028;-75
2022/05/16 14:04:29;;;;;;;8.30;2.22;;;;;;;23.58;51.46;100679.47;6148046;23;20091;-75
2022/05/16 14:07:34;;;;;;;7.55;2.67;;;;;;;23.42;50.55;100667.78;6149523;23;20580;-73
2022/05/16 14:10:38;;;;;;;4.95;1.45;;;;;;;22.82;51.88;100677.56;6147597;23;20099;-74
2022/05/16 14:13:46;;;;;;;5.28;1.70;;;;;;;22.55;52.43;100699.81;6147305;23;20049;-74
2022/05/16 14:16:53;;;;;;;6.15;2.22;;;;;;;21.76;55.62;100727.94;6146255;23;20036;-74
2022/05/16 14:19:57;;;;;;;5.60;2.00;;;;;;;21.75;56.76;100731.59;6152950;23;20485;-74
2022/05/16 14:23:00;;;;;;;7.93;2.13;;;;;;;22.14;55.29;100723.38;6154445;23;20391;-74
2022/05/16 14:26:25;;;;;;;7.30;2.38;;;;;;;21.88;56.31;100741.88;6154402;23;20059;-74
2022/05/16 14:29:32;;;;;;;6.88;1.85;;;;;;;21.53;57.82;100754.91;6154107;23;20055;-74
2022/05/16 14:32:42;;;;;;;10.07;2.33;;;;;;;21.24;60.16;100772.75;6154458;23;20393;-73
2022/05/16 14:36:05;;;;;;;8.23;1.95;;;;;;;20.40;65.06;100787.44;6154411;23;20072;-73
2022/05/16 14:39:14;;;;;;;13.38;2.50;;;;;;;20.25;68.53;100778.19;6093948;23;20136;-72
2022/05/16 14:42:24;;;;;;;22.88;4.03;;;;;;;19.64;73.00;100789.69;6095610;23;20150;-75
2022/05/16 14:48:49;;;;;;;7.53;2.40;;;;;;;19.13;76.37;100806.38;6095046;23;20032;-73
2022/05/16 14:51:53;;;;;;;11.48;3.72;;;;;;;19.24;79.58;100818.72;6095856;23;20042;-72
2022/05/16 14:55:06;;;;;;;18.92;5.07;;;;;;;19.34;79.88;100813.53;6096331;23;20029;-73
2022/05/16 14:58:11;;;;;;;15.25;3.92;;;;;;;19.56;79.37;100810.72;6089505;23;20025;-72
2022/05/16 15:04:40;;;;;;;18.92;4.55;;;;;;;19.61;78.77;100818.28;6089527;23;20633;-73
2022/05/16 15:07:44;;;;;;;16.70;4.95;;;;;;;19.59;78.65;100812.25;6089906;23;20431;-73
2022/05/16 15:10:48;;;;;;;17.15;5.03;;;;;;;19.80;78.01;100809.59;6091805;23;20090;-73
2022/05/16 15:13:51;;;;;;;16.35;4.35;;;;;;;19.34;79.76;100803.75;6090702;23;20163;-72
2022/05/16 15:16:56;;;;;;;17.55;3.72;;;;;;;18.84;81.49;100805.31;6107263;23;20029;-72
2022/05/16 15:19:59;;;;;;;26.88;5.03;;;;;;;18.55;83.13;100805.88;6088459;23;20033;-73
2022/05/16 15:23:02;;;;;;;13.63;2.97;;;;;;;18.95;81.68;100798.19;6088328;23;20143;-72